Saipan, MP

12:23 PM ChST on February 02, 2015 (GMT +1000)
Red Cross-Airport | Change Station
CLOSE
Current Station
Personal Weather Station
Location: Saipan, MP
Elevation: 215 ft
Nearby Weather Stations

Elev 215 ft 15.13 °N, 145.72 °E | Updated 12 minutes ago

Light Rain
Light Rain
75.4 °F
Feels Like 74 °F
N
7.0
Wind Variable Wind from North
Gusts 19.0 mph

Today
High -- | Low -- °F
--% Chance of Precip.
Yesterday
High -- | Low -- °F
Precip. -- in
6:46 AM 6:15 PM
Waxing Gibbous, 97% visible
Pressure 29.93 in
Visibility 6.0 miles
Clouds Scattered Clouds 2400 ft
Mostly Cloudy 2800 ft
Heat Index 74 °F
Dew Point 74 °F
Humidity 96%
Rainfall -999.00 in
Snow Depth Not available.
UV 6 out of 12
Pollen Not available.
Air Quality Not available.
Flu Activity Not available.
SPECI PGSN 020203Z 02012G22KT 350V050 6SM -RA SCT024 BKN028 24/21 A2993 RMK AO2 WSHFT 0143 PNO $

More Conditions Fewer Conditions

Pressure 29.93 in
Visibility 6.0 miles
Clouds Scattered Clouds 2400 ft
Mostly Cloudy 2800 ft
Heat Index 74 °F
Dew Point 74 °F
Humidity 96%
Rainfall -999.00 in
Snow Depth Not available.
UV 6 out of 12
Pollen Not available.
Air Quality Not available.
Flu Activity Not available.
SPECI PGSN 020203Z 02012G22KT 350V050 6SM -RA SCT024 BKN028 24/21 A2993 RMK AO2 WSHFT 0143 PNO $

More Conditions Fewer Conditions

10-Day Weather Forecast

Almanac

Astronomy

Feb. 02, 2015 Rise Set
Actual Time
Civil Twilight
Nautical Twilight
Astronomical Twilight
Moon
Length of Visible Light
Length of Day
Tomorrow will be .
, % of the Moon is Illuminated

Today's Extremes

State Highs State Lows

Community

WunderPhotos

Upload Photos

1,792,655 photos uploaded!

WunderBlogs® & News

Nearby

Air Quality

  Air Quality AQ Index Pollutant
Not available.

Snow Depth

Station Depth Elevation

Earthquake Activity

City Distance Mag. Time & Date
Minimum magnitude displayed is 2.5.

Coastal Water Temperatures

Place Temperature

Nearby Weather Stations